Time,TemperatureF,DewpointF,PressureIn,WindDirection,WindDirectionDegrees,WindSpeedMPH,WindSpeedGustMPH,Humidity,HourlyPrecipIn,Conditions,Clouds,dailyrainin,SolarRadiationWatts/m^2,SoftwareType,DateUTC
2013-08-27 00:01:00,71.5,58.2,30.06,West,270,0.0,0.0,63,0.00,,BKN,0.00,0.0,WeatherDisplay:10.37,2013-08-27 04:01:00,
2013-08-27 00:06:00,71.7,58.4,30.06,West,270,0.0,0.0,63,0.00,,BKN,0.00,0.0,WeatherDisplay:10.37,2013-08-27 04:06:00,
2013-08-27 00:11:00,72.0,58.7,30.05,SW,228,0.0,0.0,63,0.00,,BKN,0.00,0.0,WeatherDisplay:10.37,2013-08-27 04:11:00,
2013-08-27 00:16:00,72.2,58.9,30.05,WSW,243,0.0,0.0,63,0.00,,BKN,0.00,0.0,WeatherDisplay:10.37,2013-08-27 04:16:00,
2013-08-27 00:21:00,72.2,58.9,30.05,WSW,244,0.0,0.0,63,0.00,,BKN,0.00,0.0,WeatherDisplay:10.37,2013-08-27 04:21:00,
2013-08-27 00:26:00,72.3,59.4,30.05,WNW,287,0.0,0.0,64,0.00,,BKN,0.00,0.0,WeatherDisplay:10.37,2013-08-27 04:26:00,
2013-08-27 00:31:00,72.3,59.4,30.05,WSW,237,0.0,0.0,64,0.00,,BKN,0.00,0.0,WeatherDisplay:10.37,2013-08-27 04:31:00,
2013-08-27 00:36:00,72.4,59.5,30.05,WSW,237,0.0,0.0,64,0.00,,BKN,0.00,0.0,WeatherDisplay:10.37,2013-08-27 04:36:00,
2013-08-27 00:41:00,72.3,59.4,30.05,West,262,0.0,0.0,64,0.00,,BKN,0.00,0.0,WeatherDisplay:10.37,2013-08-27 04:41:00,
2013-08-27 00:46:00,71.5,59.1,30.05,West,278,0.0,0.0,65,0.00,,BKN,0.00,0.0,WeatherDisplay:10.37,2013-08-27 04:46:00,
2013-08-27 00:51:00,70.9,59.4,30.05,WSW,247,0.0,0.0,67,0.00,,BKN,0.00,0.0,WeatherDisplay:10.37,2013-08-27 04:51:00,
2013-08-27 00:56:00,70.4,59.7,30.04,SW,233,3.4,3.4,69,0.00,,BKN,0.00,0.0,WeatherDisplay:10.37,2013-08-27 04:56:00,
2013-08-27 01:01:00,69.8,59.2,30.04,WSW,243,2.3,2.3,69,0.00,,BKN,0.00,0.0,WeatherDisplay:10.37,2013-08-27 05:01:00,
2013-08-27 01:06:00,69.0,59.2,30.04,West,274,0.0,0.0,71,0.00,,BKN,0.00,0.0,WeatherDisplay:10.37,2013-08-27 05:06:00,
2013-08-27 01:11:00,68.6,59.6,30.03,SSW,207,3.4,3.4,73,0.00,,BKN,0.00,0.0,WeatherDisplay:10.37,2013-08-27 05:11:00,
2013-08-27 01:16:00,68.6,59.6,30.03,SSW,207,0.0,0.0,73,0.00,,BKN,0.00,0.0,WeatherDisplay:10.37,2013-08-27 05:16:00,
2013-08-27 01:21:00,68.3,59.3,30.03,SSW,206,1.1,1.1,73,0.00,,BKN,0.00,0.0,WeatherDisplay:10.37,2013-08-27 05:21:00,
2013-08-27 01:26:00,68.2,59.6,30.03,SSW,206,2.3,2.3,74,0.00,,BKN,0.00,0.0,WeatherDisplay:10.37,2013-08-27 05:26:00,
2013-08-27 01:31:00,68.3,59.7,30.03,SSW,206,2.3,2.3,74,0.00,,BKN,0.00,0.0,WeatherDisplay:10.37,2013-08-27 05:31:00,
2013-08-27 01:36:00,68.4,59.8,30.02,SSW,206,2.0,2.0,74,0.00,,BKN,0.00,0.0,WeatherDisplay:10.37,2013-08-27 05:36:00,
2013-08-27 01:41:00,68.2,59.6,30.02,SSW,206,0.0,0.0,74,0.00,,BKN,0.00,0.0,WeatherDisplay:10.37,2013-08-27 05:41:00,
2013-08-27 01:46:00,67.7,59.5,30.02,SW,217,1.1,1.1,75,0.00,,BKN,0.00,0.0,WeatherDisplay:10.37,2013-08-27 05:46:00,
2013-08-27 01:51:00,67.2,59.7,30.02,West,266,2.3,2.3,77,0.00,,BKN,0.00,0.0,WeatherDisplay:10.37,2013-08-27 05:51:00,
2013-08-27 01:56:00,67.0,59.5,30.02,SW,235,3.4,3.4,77,0.00,,BKN,0.00,0.0,WeatherDisplay:10.37,2013-08-27 05:56:00,
2013-08-27 02:01:00,66.8,59.7,30.02,SW,235,1.1,1.1,78,0.00,,BKN,0.00,0.0,WeatherDisplay:10.37,2013-08-27 06:01:00,
2013-08-27 02:06:00,66.6,59.9,30.02,West,265,3.4,3.4,79,0.00,,BKN,0.00,0.0,WeatherDisplay:10.37,2013-08-27 06:06:00,
2013-08-27 02:11:00,67.0,60.6,30.01,West,265,0.0,0.1,80,0.00,,BKN,0.00,0.0,WeatherDisplay:10.37,2013-08-27 06:11:00,
2013-08-27 02:16:00,67.3,60.2,30.01,WNW,289,2.3,2.3,78,0.00,,BKN,0.00,0.0,WeatherDisplay:10.37,2013-08-27 06:16:00,
2013-08-27 02:21:00,67.2,60.5,30.01,WSW,238,1.1,1.1,79,0.00,,BKN,0.00,0.0,WeatherDisplay:10.37,2013-08-27 06:21:00,
2013-08-27 02:26:00,67.2,60.5,30.01,West,278,0.0,0.0,79,0.00,,BKN,0.00,0.0,WeatherDisplay:10.37,2013-08-27 06:26:00,
2013-08-27 02:31:00,67.2,60.5,30.01,West,281,0.0,0.0,79,0.00,,BKN,0.00,0.0,WeatherDisplay:10.37,2013-08-27 06:31:00,
2013-08-27 02:36:00,67.3,60.6,30.01,WNW,288,0.0,0.0,79,0.00,,BKN,0.00,0.0,WeatherDisplay:10.37,2013-08-27 06:36:00,
2013-08-27 02:41:00,67.1,60.4,30.00,WNW,290,0.0,0.0,79,0.00,,BKN,0.00,0.0,WeatherDisplay:10.37,2013-08-27 06:41:00,
2013-08-27 02:46:00,66.8,60.4,30.00,WSW,237,0.0,0.0,80,0.00,,BKN,0.00,0.0,WeatherDisplay:10.37,2013-08-27 06:46:00,
2013-08-27 02:51:00,66.8,60.8,30.00,SW,228,0.0,0.0,81,0.00,,BKN,0.00,0.0,WeatherDisplay:10.37,2013-08-27 06:51:00,
2013-08-27 02:56:00,66.8,60.8,30.00,SW,228,0.0,0.0,81,0.00,,BKN,0.00,0.0,WeatherDisplay:10.37,2013-08-27 06:56:00,
2013-08-27 03:01:00,66.9,60.9,30.00,WNW,295,0.0,0.0,81,0.00,,BKN,0.00,0.0,WeatherDisplay:10.37,2013-08-27 07:01:00,
2013-08-27 03:06:00,67.2,61.2,30.00,WSW,258,0.0,0.0,81,0.00,,BKN,0.00,0.0,WeatherDisplay:10.37,2013-08-27 07:06:00,
2013-08-27 03:11:00,67.8,61.4,30.00,SW,216,0.0,0.0,80,0.00,,BKN,0.00,0.0,WeatherDisplay:10.37,2013-08-27 07:11:00,
2013-08-27 03:16:00,68.3,61.5,30.00,WNW,297,1.0,0.0,79,0.00,,BKN,0.00,0.0,WeatherDisplay:10.37,2013-08-27 07:16:00,
2013-08-27 03:21:00,68.3,61.2,30.00,NW,314,0.0,0.0,78,0.00,,BKN,0.00,0.0,WeatherDisplay:10.37,2013-08-27 07:21:00,
2013-08-27 03:26:00,68.5,61.7,30.00,North,4,0.0,0.0,79,0.00,,BKN,0.00,0.0,WeatherDisplay:10.37,2013-08-27 07:26:00,
2013-08-27 03:31:00,68.8,61.7,30.00,WSW,247,0.0,0.0,78,0.00,,BKN,0.00,0.0,WeatherDisplay:10.37,2013-08-27 07:31:00,
2013-08-27 03:36:00,69.4,62.2,30.00,WNW,288,2.3,2.3,78,0.00,,BKN,0.00,0.0,WeatherDisplay:10.37,2013-08-27 07:36:00,
2013-08-27 03:41:00,69.6,62.1,30.00,WNW,288,0.0,0.0,77,0.00,,BKN,0.00,0.0,WeatherDisplay:10.37,2013-08-27 07:41:00,
2013-08-27 03:46:00,69.7,62.2,29.99,WSW,251,0.0,0.0,77,0.00,,BKN,0.00,0.0,WeatherDisplay:10.37,2013-08-27 07:46:00,
2013-08-27 03:51:00,69.5,61.6,29.99,SSW,197,1.1,0.0,76,0.00,,BKN,0.00,0.0,WeatherDisplay:10.37,2013-08-27 07:51:00,
2013-08-27 03:56:00,69.3,61.8,29.99,South,178,0.0,0.0,77,0.00,,BKN,0.00,0.0,WeatherDisplay:10.37,2013-08-27 07:56:00,
2013-08-27 04:01:00,69.3,61.8,30.00,South,177,0.0,0.0,77,0.00,,BKN,0.00,0.0,WeatherDisplay:10.37,2013-08-27 08:01:00,
2013-08-27 04:06:00,69.6,61.7,30.00,South,184,0.0,0.0,76,0.00,,BKN,0.00,0.0,WeatherDisplay:10.37,2013-08-27 08:06:00,
2013-08-27 04:11:00,69.9,62.0,30.00,West,262,0.0,0.0,76,0.00,,BKN,0.00,0.0,WeatherDisplay:10.37,2013-08-27 08:11:00,
2013-08-27 04:16:00,69.8,61.9,30.00,West,266,0.0,0.0,76,0.00,,BKN,0.00,0.0,WeatherDisplay:10.37,2013-08-27 08:16:00,
2013-08-27 04:21:00,69.9,62.4,30.00,West,266,0.0,0.0,77,0.00,,BKN,0.00,0.0,WeatherDisplay:10.37,2013-08-27 08:21:00,
2013-08-27 04:26:00,70.4,62.5,30.00,WNW,282,1.1,0.0,76,0.00,,BKN,0.00,0.0,WeatherDisplay:10.37,2013-08-27 08:26:00,
2013-08-27 04:31:00,70.7,62.4,30.00,WNW,282,0.0,0.0,75,0.00,,BKN,0.00,0.0,WeatherDisplay:10.37,2013-08-27 08:31:00,
2013-08-27 04:36:00,70.8,62.1,30.00,WNW,282,1.1,1.1,74,0.00,,BKN,0.00,0.0,WeatherDisplay:10.37,2013-08-27 08:36:00,
2013-08-27 04:41:00,70.9,62.2,30.00,WNW,282,0.0,0.0,74,0.00,,BKN,0.00,0.0,WeatherDisplay:10.37,2013-08-27 08:41:00,
2013-08-27 04:46:00,70.9,62.2,30.00,WNW,282,0.0,0.0,74,0.00,,BKN,0.00,0.0,WeatherDisplay:10.37,2013-08-27 08:46:00,
2013-08-27 04:51:00,70.7,62.4,29.99,West,269,0.0,0.0,75,0.00,,BKN,0.00,0.0,WeatherDisplay:10.37,2013-08-27 08:51:00,
2013-08-27 04:56:00,70.3,62.0,29.99,South,177,3.4,3.4,75,0.00,,BKN,0.00,0.0,WeatherDisplay:10.37,2013-08-27 08:56:00,
2013-08-27 05:01:00,69.9,62.0,29.99,SSW,198,1.1,0.0,76,0.00,,BKN,0.00,0.0,WeatherDisplay:10.37,2013-08-27 09:01:00,
2013-08-27 05:06:00,69.8,62.3,29.99,SSW,193,3.4,3.4,77,0.00,,BKN,0.00,0.0,WeatherDisplay:10.37,2013-08-27 09:06:00,
2013-08-27 05:11:00,69.7,62.2,29.99,WNW,284,2.0,2.0,77,0.00,,BKN,0.00,0.0,WeatherDisplay:10.37,2013-08-27 09:11:00,
2013-08-27 05:16:00,69.7,62.5,29.99,West,264,0.0,0.0,78,0.00,,BKN,0.00,0.0,WeatherDisplay:10.37,2013-08-27 09:16:00,
2013-08-27 05:21:00,69.4,62.2,29.99,West,264,0.0,0.0,78,0.00,,BKN,0.00,0.0,WeatherDisplay:10.37,2013-08-27 09:21:00,
2013-08-27 05:26:00,69.1,61.9,29.99,West,264,0.0,0.0,78,0.00,,BKN,0.00,0.0,WeatherDisplay:10.37,2013-08-27 09:26:00,
2013-08-27 05:31:00,69.0,61.9,29.99,West,264,1.1,0.0,78,0.00,,BKN,0.00,0.0,WeatherDisplay:10.37,2013-08-27 09:31:00,
2013-08-27 05:36:00,68.9,62.1,29.99,West,260,0.0,0.0,79,0.00,,BKN,0.00,0.0,WeatherDisplay:10.37,2013-08-27 09:36:00,
2013-08-27 05:41:00,68.8,62.0,29.99,West,260,0.0,0.0,79,0.00,,BKN,0.00,0.0,WeatherDisplay:10.37,2013-08-27 09:41:00,
2013-08-27 05:46:00,68.9,62.1,29.99,SSW,197,0.0,0.0,79,0.00,,BKN,0.00,0.0,WeatherDisplay:10.37,2013-08-27 09:46:00,
2013-08-27 05:51:00,69.0,62.2,30.00,SSW,193,0.0,0.0,79,0.00,,BKN,0.00,0.0,WeatherDisplay:10.37,2013-08-27 09:51:00,
2013-08-27 05:56:00,68.7,61.9,30.00,West,274,0.0,0.0,79,0.00,,BKN,0.00,0.0,WeatherDisplay:10.37,2013-08-27 09:56:00,
2013-08-27 06:01:00,68.4,62.0,30.00,West,274,0.0,0.0,80,0.00,,BKN,0.00,0.0,WeatherDisplay:10.37,2013-08-27 10:01:00,
2013-08-27 06:06:00,68.3,61.9,30.00,West,274,0.0,0.0,80,0.00,,BKN,0.00,0.0,WeatherDisplay:10.37,2013-08-27 10:06:00,
2013-08-27 06:11:00,68.3,61.9,30.00,West,274,0.0,0.0,80,0.00,OVC,BKN,0.00,0.0,WeatherDisplay:10.37,2013-08-27 10:11:00,
2013-08-27 06:16:00,68.1,62.0,29.99,WSW,239,0.0,0.0,81,0.00,OVC,BKN,0.00,0.0,WeatherDisplay:10.37,2013-08-27 10:16:00,
2013-08-27 06:21:00,67.9,61.9,29.99,SW,217,0.0,0.0,81,0.00,OVC,BKN,0.00,0.0,WeatherDisplay:10.37,2013-08-27 10:21:00,
2013-08-27 06:26:00,67.8,61.8,29.99,SW,221,4.6,4.6,81,0.00,OVC,BKN,0.00,0.0,WeatherDisplay:10.37,2013-08-27 10:26:00,
2013-08-27 06:31:00,67.7,62.0,29.99,SSW,209,2.3,2.3,82,0.00,OVC,BKN,0.00,0.0,WeatherDisplay:10.37,2013-08-27 10:31:00,
2013-08-27 06:36:00,67.7,62.0,30.00,SSW,199,3.4,3.4,82,0.00,OVC,BKN,0.00,0.0,WeatherDisplay:10.37,2013-08-27 10:36:00,
2013-08-27 06:41:00,67.6,61.9,30.00,SSW,195,3.4,3.4,82,0.00,OVC,BKN,0.00,0.0,WeatherDisplay:10.37,2013-08-27 10:41:00,
2013-08-27 06:46:00,67.3,62.0,30.00,SSW,195,2.3,2.3,83,0.00,OVC,BKN,0.00,0.0,WeatherDisplay:10.37,2013-08-27 10:46:00,
2013-08-27 06:51:00,67.1,61.8,30.00,SSW,195,2.0,2.0,83,0.00,OVC,BKN,0.00,5.0,WeatherDisplay:10.37,2013-08-27 10:51:00,
2013-08-27 06:56:00,66.9,61.9,30.00,SSW,195,3.4,3.4,84,0.00,OVC,BKN,0.00,7.0,WeatherDisplay:10.37,2013-08-27 10:56:00,
2013-08-27 07:01:00,66.9,61.9,30.00,West,274,0.0,0.0,84,0.00,OVC,BKN,0.00,11.0,WeatherDisplay:10.37,2013-08-27 11:01:00,
2013-08-27 07:06:00,66.6,61.6,30.00,SSW,204,4.6,4.6,84,0.00,OVC,BKN,0.00,12.0,WeatherDisplay:10.37,2013-08-27 11:06:00,
2013-08-27 07:11:00,66.6,61.9,30.00,South,191,4.6,4.6,85,0.00,OVC,BKN,0.00,21.0,WeatherDisplay:10.37,2013-08-27 11:11:00,
2013-08-27 07:16:00,66.5,61.8,30.00,SSW,200,6.0,6.0,85,0.00,OVC,BKN,0.00,28.0,WeatherDisplay:10.37,2013-08-27 11:16:00,
2013-08-27 07:21:00,66.5,61.8,30.00,SSW,203,3.4,3.4,85,0.00,OVC,BKN,0.00,44.0,WeatherDisplay:10.37,2013-08-27 11:21:00,
2013-08-27 07:26:00,66.6,61.9,30.00,SSW,205,3.4,3.4,85,0.00,OVC,BKN,0.00,58.0,WeatherDisplay:10.37,2013-08-27 11:26:00,
2013-08-27 07:31:00,66.8,62.1,29.99,SSW,204,3.0,3.0,85,0.00,BKN,BKN,0.00,95.0,WeatherDisplay:10.37,2013-08-27 11:31:00,
2013-08-27 07:36:00,67.3,62.6,29.99,SSW,201,0.0,0.0,85,0.00,BKN,BKN,0.00,111.0,WeatherDisplay:10.37,2013-08-27 11:36:00,
2013-08-27 07:41:00,67.8,62.8,30.00,SSW,208,0.0,0.0,84,0.00,BKN,BKN,0.00,107.0,WeatherDisplay:10.37,2013-08-27 11:41:00,
2013-08-27 07:46:00,68.2,62.8,30.00,SSW,198,3.4,3.4,83,0.00,OVC,BKN,0.00,69.0,WeatherDisplay:10.37,2013-08-27 11:46:00,
2013-08-27 07:51:00,68.5,63.1,30.00,SSW,202,0.0,0.0,83,0.00,OVC,BKN,0.00,49.0,WeatherDisplay:10.37,2013-08-27 11:51:00,
2013-08-27 07:56:00,68.3,62.9,30.00,SSW,201,3.0,3.0,83,0.00,OVC,BKN,0.00,56.0,WeatherDisplay:10.37,2013-08-27 11:56:00,
2013-08-27 08:01:00,68.2,63.2,30.00,WSW,249,0.0,0.0,84,0.00,OVC,BKN,0.00,51.0,WeatherDisplay:10.37,2013-08-27 12:01:00,
2013-08-27 08:06:00,68.1,63.4,30.00,WSW,249,0.0,0.0,85,0.00,OVC,BKN,0.00,54.0,WeatherDisplay:10.37,2013-08-27 12:06:00,
2013-08-27 08:11:00,68.1,63.4,30.00,WSW,249,1.0,1.0,85,0.00,SCT,BKN,0.00,162.0,WeatherDisplay:10.37,2013-08-27 12:11:00,
2013-08-27 08:16:00,68.3,63.3,30.00,South,189,3.4,3.4,84,0.00,SCT,BKN,0.00,197.0,WeatherDisplay:10.37,2013-08-27 12:16:00,
2013-08-27 08:21:00,68.5,63.8,30.00,SSW,192,3.4,3.4,85,0.00,BKN,BKN,0.00,151.0,WeatherDisplay:10.37,2013-08-27 12:21:00,
2013-08-27 08:26:00,68.7,64.0,30.00,SSW,192,4.6,4.6,85,0.00,SCT,BKN,0.00,204.0,WeatherDisplay:10.37,2013-08-27 12:26:00,
2013-08-27 08:31:00,69.1,64.1,30.00,South,191,3.4,3.4,84,0.00,FEW,BKN,0.00,257.0,WeatherDisplay:10.37,2013-08-27 12:31:00,
2013-08-27 08:36:00,69.5,64.5,30.00,SSW,192,0.0,0.0,84,0.00,BKN,BKN,0.00,139.0,WeatherDisplay:10.37,2013-08-27 12:36:00,
2013-08-27 08:41:00,69.9,64.8,30.00,SSW,192,3.4,3.4,84,0.00,SCT,BKN,0.00,204.0,WeatherDisplay:10.37,2013-08-27 12:41:00,
2013-08-27 08:46:00,70.1,65.4,30.00,SSW,192,1.1,1.1,85,0.00,BKN,BKN,0.00,174.0,WeatherDisplay:10.37,2013-08-27 12:46:00,
2013-08-27 08:51:00,70.3,65.9,29.99,SSW,192,0.0,0.0,86,0.00,BKN,BKN,0.00,179.0,WeatherDisplay:10.37,2013-08-27 12:51:00,
2013-08-27 08:56:00,70.6,65.9,30.00,West,271,0.0,0.0,85,0.00,BKN,BKN,0.00,169.0,WeatherDisplay:10.37,2013-08-27 12:56:00,
2013-08-27 09:01:00,71.0,66.3,29.99,SSW,196,0.0,0.0,85,0.00,SCT,BKN,0.00,258.0,WeatherDisplay:10.37,2013-08-27 13:01:00,
2013-08-27 09:06:00,71.6,66.8,29.99,SSW,196,0.0,0.0,85,0.00,FEW,BKN,0.00,464.0,WeatherDisplay:10.37,2013-08-27 13:06:00,
2013-08-27 09:11:00,72.4,66.6,29.99,West,266,0.0,0.0,82,0.00,CLR,BKN,0.00,468.0,WeatherDisplay:10.37,2013-08-27 13:11:00,
2013-08-27 09:16:00,73.3,66.4,29.99,West,262,3.4,3.4,79,0.00,CLR,BKN,0.00,462.0,WeatherDisplay:10.37,2013-08-27 13:16:00,
2013-08-27 09:21:00,74.4,66.7,29.99,WSW,243,0.0,0.0,77,0.00,CLR,BKN,0.00,487.0,WeatherDisplay:10.37,2013-08-27 13:21:00,
2013-08-27 09:26:00,74.9,66.4,29.99,WSW,249,0.0,0.0,75,0.00,FEW,BKN,0.00,381.0,WeatherDisplay:10.37,2013-08-27 13:26:00,
2013-08-27 09:31:00,75.2,66.7,29.99,South,183,0.0,0.0,75,0.00,SCT,BKN,0.00,334.0,WeatherDisplay:10.37,2013-08-27 13:31:00,
2013-08-27 09:36:00,75.5,67.0,29.99,South,183,0.0,0.0,75,0.00,SCT,BKN,0.00,390.0,WeatherDisplay:10.37,2013-08-27 13:36:00,
2013-08-27 09:41:00,75.8,66.9,29.99,West,269,0.0,0.0,74,0.00,OVC,BKN,0.00,183.0,WeatherDisplay:10.37,2013-08-27 13:41:00,
2013-08-27 09:46:00,75.9,67.0,29.99,West,266,0.0,0.0,74,0.00,OVC,BKN,0.00,183.0,WeatherDisplay:10.37,2013-08-27 13:46:00,
2013-08-27 09:51:00,76.0,67.1,29.99,WSW,256,0.0,0.0,74,0.00,BKN,BKN,0.00,260.0,WeatherDisplay:10.37,2013-08-27 13:51:00,
2013-08-27 09:56:00,76.3,66.6,29.99,WNW,284,0.0,0.0,72,0.00,CLR,BKN,0.00,494.0,WeatherDisplay:10.37,2013-08-27 13:56:00,
2013-08-27 10:01:00,76.4,67.5,29.99,West,280,0.0,0.0,74,0.00,OVC,BKN,0.00,199.0,WeatherDisplay:10.37,2013-08-27 14:01:00,
2013-08-27 10:06:00,76.4,67.1,29.99,SW,225,0.0,0.0,73,0.00,OVC,BKN,0.00,186.0,WeatherDisplay:10.37,2013-08-27 14:06:00,
2013-08-27 10:11:00,76.4,67.9,29.99,South,181,0.0,0.0,75,0.00,OVC,BKN,0.00,199.0,WeatherDisplay:10.37,2013-08-27 14:11:00,
2013-08-27 10:16:00,76.2,67.7,29.99,SSW,195,0.0,0.0,75,0.00,BKN,BKN,0.00,223.0,WeatherDisplay:10.37,2013-08-27 14:16:00,
2013-08-27 10:21:00,76.3,67.8,29.99,SSW,195,0.0,0.0,75,0.00,BKN,BKN,0.00,264.0,WeatherDisplay:10.37,2013-08-27 14:21:00,
2013-08-27 10:26:00,76.7,68.6,29.98,SSW,195,0.0,0.0,76,0.00,CLR,BKN,0.00,561.0,WeatherDisplay:10.37,2013-08-27 14:26:00,
2013-08-27 10:31:00,77.3,69.1,29.98,WNW,297,4.6,4.6,76,0.00,SCT,BKN,0.00,452.0,WeatherDisplay:10.37,2013-08-27 14:31:00,
2013-08-27 10:36:00,77.3,69.1,29.98,West,280,1.1,1.1,76,0.00,SCT,BKN,0.00,366.0,WeatherDisplay:10.37,2013-08-27 14:36:00,
2013-08-27 10:41:00,77.1,67.8,29.98,SSW,212,3.4,3.4,73,0.00,BKN,BKN,0.00,248.0,WeatherDisplay:10.37,2013-08-27 14:41:00,
2013-08-27 10:46:00,77.1,67.4,29.98,WNW,288,3.0,3.0,72,0.00,OVC,BKN,0.00,221.0,WeatherDisplay:10.37,2013-08-27 14:46:00,
2013-08-27 10:51:00,77.3,68.4,29.98,SW,219,0.0,0.0,74,0.00,OVC,BKN,0.00,223.0,WeatherDisplay:10.37,2013-08-27 14:51:00,
2013-08-27 10:56:00,77.2,67.1,29.98,WNW,295,3.4,3.4,71,0.00,OVC,BKN,0.00,192.0,WeatherDisplay:10.37,2013-08-27 14:56:00,
2013-08-27 11:01:00,77.4,66.8,29.98,WNW,285,3.4,3.4,70,0.00,OVC,BKN,0.00,167.0,WeatherDisplay:10.37,2013-08-27 15:01:00,
2013-08-27 11:06:00,77.5,66.9,29.98,WNW,291,0.0,0.0,70,0.00,OVC,BKN,0.00,128.0,WeatherDisplay:10.37,2013-08-27 15:06:00,
2013-08-27 11:11:00,77.5,66.9,29.98,WNW,291,0.0,0.0,70,0.00,OVC,BKN,0.00,181.0,WeatherDisplay:10.37,2013-08-27 15:11:00,
2013-08-27 11:16:00,78.0,67.8,29.98,WSW,241,0.0,0.0,71,0.00,CLR,BKN,0.00,726.0,WeatherDisplay:10.37,2013-08-27 15:16:00,
2013-08-27 11:21:00,78.7,66.8,29.99,West,262,3.4,3.4,67,0.00,FEW,BKN,0.00,615.0,WeatherDisplay:10.37,2013-08-27 15:21:00,
2013-08-27 11:26:00,79.3,67.8,29.98,West,273,3.0,3.0,68,0.00,OVC,BKN,0.00,183.0,WeatherDisplay:10.37,2013-08-27 15:26:00,
2013-08-27 11:31:00,79.9,68.0,29.98,West,268,4.0,4.0,67,0.00,CLR,BKN,0.00,712.0,WeatherDisplay:10.37,2013-08-27 15:31:00,
2013-08-27 11:36:00,80.4,68.0,29.98,SW,222,3.4,3.4,66,0.00,CLR,BKN,0.00,747.0,WeatherDisplay:10.37,2013-08-27 15:36:00,
2013-08-27 11:41:00,80.7,67.8,29.98,SW,218,3.4,3.4,65,0.00,FEW,BKN,0.00,628.0,WeatherDisplay:10.37,2013-08-27 15:41:00,
2013-08-27 11:46:00,81.1,68.2,29.98,SW,220,0.0,0.0,65,0.00,FEW,BKN,0.00,603.0,WeatherDisplay:10.37,2013-08-27 15:46:00,
2013-08-27 11:51:00,81.5,67.7,29.98,WNW,302,0.0,0.0,63,0.00,FEW,BKN,0.00,643.0,WeatherDisplay:10.37,2013-08-27 15:51:00,
2013-08-27 11:56:00,81.6,68.2,29.98,SSW,206,1.0,0.0,64,0.00,SCT,BKN,0.00,464.0,WeatherDisplay:10.37,2013-08-27 15:56:00,
2013-08-27 12:01:00,82.1,68.7,29.98,West,276,5.8,5.8,64,0.00,SCT,BKN,0.00,534.0,WeatherDisplay:10.37,2013-08-27 16:01:00,
2013-08-27 12:06:00,81.8,66.1,29.98,West,278,10.3,10.3,59,0.00,SCT,BKN,0.00,534.0,WeatherDisplay:10.37,2013-08-27 16:06:00,
2013-08-27 12:11:00,81.7,65.0,29.98,WNW,292,19.5,19.5,57,0.00,FEW,BKN,0.00,573.0,WeatherDisplay:10.37,2013-08-27 16:11:00,
2013-08-27 12:16:00,81.6,65.4,29.98,WNW,282,13.8,13.8,58,0.00,CLR,BKN,0.00,684.0,WeatherDisplay:10.37,2013-08-27 16:16:00,
2013-08-27 12:21:00,81.7,66.0,29.97,WNW,287,11.5,11.5,59,0.00,SCT,BKN,0.00,473.0,WeatherDisplay:10.37,2013-08-27 16:21:00,
2013-08-27 12:26:00,81.8,66.1,29.97,WNW,288,13.8,13.8,59,0.00,FEW,BKN,0.00,610.0,WeatherDisplay:10.37,2013-08-27 16:26:00,
2013-08-27 12:31:00,81.9,66.2,29.97,WNW,299,8.1,8.1,59,0.00,FEW,BKN,0.00,650.0,WeatherDisplay:10.37,2013-08-27 16:31:00,
2013-08-27 12:36:00,81.9,66.2,29.97,NW,323,8.1,8.1,59,0.00,SCT,BKN,0.00,476.0,WeatherDisplay:10.37,2013-08-27 16:36:00,
2013-08-27 12:41:00,81.9,66.2,29.97,West,263,11.5,11.5,59,0.00,SCT,BKN,0.00,478.0,WeatherDisplay:10.37,2013-08-27 16:41:00,
2013-08-27 12:46:00,81.8,66.6,29.97,West,274,10.3,10.3,60,0.00,FEW,BKN,0.00,675.0,WeatherDisplay:10.37,2013-08-27 16:46:00,
2013-08-27 12:51:00,81.8,66.1,29.97,West,278,16.0,16.0,59,0.00,SCT,BKN,0.00,501.0,WeatherDisplay:10.37,2013-08-27 16:51:00,
2013-08-27 12:56:00,81.8,67.5,29.97,West,281,6.9,6.9,62,0.00,FEW,BKN,0.00,582.0,WeatherDisplay:10.37,2013-08-27 16:56:00,
2013-08-27 13:01:00,81.9,67.6,29.97,West,281,11.5,11.5,62,0.00,FEW,BKN,0.00,541.0,WeatherDisplay:10.37,2013-08-27 17:01:00,
2013-08-27 13:06:00,81.7,66.5,29.96,NNW,337,11.5,11.5,60,0.00,BKN,BKN,0.00,301.0,WeatherDisplay:10.37,2013-08-27 17:06:00,
2013-08-27 13:11:00,81.6,66.8,29.96,NW,307,11.5,11.5,61,0.00,SCT,BKN,0.00,471.0,WeatherDisplay:10.37,2013-08-27 17:11:00,
2013-08-27 13:16:00,81.7,67.9,29.96,WNW,285,6.9,6.9,63,0.00,SCT,BKN,0.00,545.0,WeatherDisplay:10.37,2013-08-27 17:16:00,
2013-08-27 13:21:00,82.3,69.4,29.96,NW,326,4.6,4.6,65,0.00,CLR,BKN,0.00,710.0,WeatherDisplay:10.37,2013-08-27 17:21:00,
2013-08-27 13:26:00,83.0,67.7,29.96,West,266,8.1,8.1,60,0.00,CLR,BKN,0.00,770.0,WeatherDisplay:10.37,2013-08-27 17:26:00,
2013-08-27 13:31:00,82.9,67.1,29.95,West,280,12.6,12.6,59,0.00,CLR,BKN,0.00,853.0,WeatherDisplay:10.37,2013-08-27 17:31:00,
2013-08-27 13:36:00,82.5,67.7,29.95,West,269,5.8,5.8,61,0.00,FEW,BKN,0.00,566.0,WeatherDisplay:10.37,2013-08-27 17:36:00,
2013-08-27 13:41:00,82.7,67.9,29.95,West,259,2.3,2.3,61,0.00,CLR,BKN,0.00,728.0,WeatherDisplay:10.37,2013-08-27 17:41:00,
2013-08-27 13:46:00,82.8,67.0,29.95,WNW,284,12.6,12.6,59,0.00,SCT,BKN,0.00,410.0,WeatherDisplay:10.37,2013-08-27 17:46:00,
2013-08-27 13:51:00,82.4,66.6,29.95,West,266,9.2,9.2,59,0.00,FEW,BKN,0.00,610.0,WeatherDisplay:10.37,2013-08-27 17:51:00,
2013-08-27 13:56:00,82.2,67.4,29.95,NW,306,5.0,5.0,61,0.00,BKN,BKN,0.00,308.0,WeatherDisplay:10.37,2013-08-27 17:56:00,
2013-08-27 14:01:00,81.9,67.1,29.96,WNW,295,11.5,11.5,61,0.00,BKN,BKN,0.00,290.0,WeatherDisplay:10.37,2013-08-27 18:01:00,
2013-08-27 14:06:00,81.5,66.8,29.96,NW,310,9.2,9.2,61,0.00,BKN,BKN,0.00,306.0,WeatherDisplay:10.37,2013-08-27 18:06:00,
2013-08-27 14:11:00,81.4,67.1,29.96,West,271,3.4,3.4,62,0.00,BKN,BKN,0.00,315.0,WeatherDisplay:10.37,2013-08-27 18:11:00,
2013-08-27 14:16:00,81.4,66.7,29.96,NW,306,8.1,8.1,61,0.00,BKN,BKN,0.00,285.0,WeatherDisplay:10.37,2013-08-27 18:16:00,
2013-08-27 14:21:00,81.4,67.1,29.96,NNW,331,4.6,4.6,62,0.00,OVC,BKN,0.00,251.0,WeatherDisplay:10.37,2013-08-27 18:21:00,
2013-08-27 14:26:00,81.1,67.8,29.96,NW,310,8.1,8.1,64,0.00,BKN,BKN,0.00,264.0,WeatherDisplay:10.37,2013-08-27 18:26:00,
2013-08-27 14:31:00,80.9,66.2,29.96,NW,325,4.6,4.6,61,0.00,BKN,BKN,0.00,269.0,WeatherDisplay:10.37,2013-08-27 18:31:00,
2013-08-27 14:36:00,80.8,66.6,29.96,NW,313,8.1,8.1,62,0.00,BKN,BKN,0.00,276.0,WeatherDisplay:10.37,2013-08-27 18:36:00,
2013-08-27 14:41:00,80.6,65.9,29.95,WNW,289,12.6,12.6,61,0.00,BKN,BKN,0.00,260.0,WeatherDisplay:10.37,2013-08-27 18:41:00,
2013-08-27 14:46:00,80.3,66.1,29.95,WNW,284,10.3,10.3,62,0.00,BKN,BKN,0.00,243.0,WeatherDisplay:10.37,2013-08-27 18:46:00,
2013-08-27 14:51:00,80.2,66.0,29.95,NNW,327,9.2,9.2,62,0.00,BKN,BKN,0.00,236.0,WeatherDisplay:10.37,2013-08-27 18:51:00,
2013-08-27 14:56:00,80.1,66.4,29.95,WNW,285,5.8,5.8,63,0.00,OVC,BKN,0.00,221.0,WeatherDisplay:10.37,2013-08-27 18:56:00,
2013-08-27 15:01:00,80.0,66.7,29.95,WSW,258,5.8,5.8,64,0.00,OVC,BKN,0.00,178.0,WeatherDisplay:10.37,2013-08-27 19:01:00,
2013-08-27 15:06:00,79.8,65.6,29.95,WNW,299,10.3,10.3,62,0.00,OVC,BKN,0.00,148.0,WeatherDisplay:10.37,2013-08-27 19:06:00,
2013-08-27 15:11:00,79.6,65.4,29.95,WNW,286,9.0,9.0,62,0.00,OVC,BKN,0.00,121.0,WeatherDisplay:10.37,2013-08-27 19:11:00,
2013-08-27 15:16:00,79.5,65.3,29.95,WNW,284,9.0,9.0,62,0.00,OVC,BKN,0.00,95.0,WeatherDisplay:10.37,2013-08-27 19:16:00,
2013-08-27 15:21:00,79.3,65.1,29.95,NW,322,5.8,5.8,62,0.00,OVC,BKN,0.00,76.0,WeatherDisplay:10.37,2013-08-27 19:21:00,
2013-08-27 15:26:00,79.1,65.0,29.95,North,8,5.8,5.8,62,0.00,OVC,BKN,0.00,86.0,WeatherDisplay:10.37,2013-08-27 19:26:00,
2013-08-27 15:31:00,78.9,65.7,29.95,WNW,286,8.0,8.0,64,0.00,OVC,BKN,0.00,118.0,WeatherDisplay:10.37,2013-08-27 19:31:00,
2013-08-27 15:36:00,78.9,64.3,29.95,NW,306,4.6,4.6,61,0.00,OVC,BKN,0.00,148.0,WeatherDisplay:10.37,2013-08-27 19:36:00,
2013-08-27 15:41:00,78.8,64.7,29.95,WNW,293,8.1,8.1,62,0.00,OVC,BKN,0.00,127.0,WeatherDisplay:10.37,2013-08-27 19:41:00,
2013-08-27 15:46:00,78.9,63.8,29.95,NW,318,10.3,10.3,60,0.00,OVC,BKN,0.00,111.0,WeatherDisplay:10.37,2013-08-27 19:46:00,
2013-08-27 15:51:00,78.9,64.3,29.95,WNW,286,9.2,9.2,61,0.00,OVC,BKN,0.00,109.0,WeatherDisplay:10.37,2013-08-27 19:51:00,
2013-08-27 15:56:00,78.7,63.6,29.95,NW,316,9.2,9.2,60,0.00,OVC,BKN,0.00,95.0,WeatherDisplay:10.37,2013-08-27 19:56:00,
2013-08-27 16:01:00,78.5,64.4,29.94,NW,308,8.1,8.1,62,0.00,OVC,BKN,0.00,76.0,WeatherDisplay:10.37,2013-08-27 20:01:00,
2013-08-27 16:06:00,78.0,64.8,29.94,WNW,295,3.4,3.4,64,0.00,OVC,BKN,0.00,72.0,WeatherDisplay:10.37,2013-08-27 20:06:00,
2013-08-27 16:11:00,77.5,64.4,29.94,NW,316,5.8,5.8,64,0.00,OVC,BKN,0.00,67.0,WeatherDisplay:10.37,2013-08-27 20:11:00,
2013-08-27 16:16:00,77.5,64.4,29.94,NNW,340,3.4,3.4,64,0.00,OVC,BKN,0.00,70.0,WeatherDisplay:10.37,2013-08-27 20:16:00,
2013-08-27 16:21:00,77.6,64.5,29.94,NNW,330,2.3,2.3,64,0.00,OVC,BKN,0.00,67.0,WeatherDisplay:10.37,2013-08-27 20:21:00,
2013-08-27 16:26:00,77.5,64.4,29.94,NNW,335,0.0,0.0,64,0.00,OVC,BKN,0.00,81.0,WeatherDisplay:10.37,2013-08-27 20:26:00,
2013-08-27 16:31:00,77.6,64.9,29.94,NNW,338,0.0,0.0,65,0.00,OVC,BKN,0.00,95.0,WeatherDisplay:10.37,2013-08-27 20:31:00,
2013-08-27 16:36:00,77.6,64.5,29.94,North,359,0.0,0.0,64,0.00,OVC,BKN,0.00,134.0,WeatherDisplay:10.37,2013-08-27 20:36:00,
2013-08-27 16:41:00,77.8,65.1,29.94,North,349,0.0,0.0,65,0.00,BKN,BKN,0.00,169.0,WeatherDisplay:10.37,2013-08-27 20:41:00,
2013-08-27 16:46:00,77.9,65.2,29.94,NNW,343,0.0,0.0,65,0.00,BKN,BKN,0.00,176.0,WeatherDisplay:10.37,2013-08-27 20:46:00,
2013-08-27 16:51:00,77.9,65.6,29.94,NW,324,0.0,0.0,66,0.00,BKN,BKN,0.00,186.0,WeatherDisplay:10.37,2013-08-27 20:51:00,
2013-08-27 16:56:00,78.0,65.7,29.93,West,260,0.0,0.0,66,0.00,BKN,BKN,0.00,146.0,WeatherDisplay:10.37,2013-08-27 20:56:00,
2013-08-27 17:01:00,78.0,67.4,29.93,WSW,257,0.0,0.0,70,0.00,OVC,BKN,0.00,88.0,WeatherDisplay:10.37,2013-08-27 21:01:00,
2013-08-27 17:06:00,78.0,65.7,29.93,NW,323,0.0,0.0,66,0.00,OVC,BKN,0.00,70.0,WeatherDisplay:10.37,2013-08-27 21:06:00,
2013-08-27 17:11:00,78.0,65.7,29.93,NW,323,0.0,0.0,66,0.00,OVC,BKN,0.00,98.0,WeatherDisplay:10.37,2013-08-27 21:11:00,
2013-08-27 17:16:00,78.1,65.4,29.92,WNW,296,0.0,0.0,65,0.00,BKN,BKN,0.00,121.0,WeatherDisplay:10.37,2013-08-27 21:16:00,
2013-08-27 17:21:00,78.2,64.6,29.92,WSW,248,2.3,2.3,63,0.00,BKN,BKN,0.00,121.0,WeatherDisplay:10.37,2013-08-27 21:21:00,
2013-08-27 17:26:00,78.4,65.7,29.92,WSW,248,0.0,0.0,65,0.00,BKN,BKN,0.00,146.0,WeatherDisplay:10.37,2013-08-27 21:26:00,
2013-08-27 17:31:00,78.6,66.3,29.92,WSW,248,0.0,0.0,66,0.00,SCT,BKN,0.00,181.0,WeatherDisplay:10.37,2013-08-27 21:31:00,
2013-08-27 17:36:00,78.9,67.0,29.92,WSW,248,0.0,0.0,67,0.00,SCT,BKN,0.00,139.0,WeatherDisplay:10.37,2013-08-27 21:36:00,
2013-08-27 17:41:00,78.9,67.0,29.92,WSW,248,0.0,0.0,67,0.00,BKN,BKN,0.00,118.0,WeatherDisplay:10.37,2013-08-27 21:41:00,
2013-08-27 17:46:00,78.7,68.1,29.92,WSW,248,0.0,0.0,70,0.00,BKN,BKN,0.00,81.0,WeatherDisplay:10.37,2013-08-27 21:46:00,
2013-08-27 17:51:00,78.5,67.5,29.92,WSW,248,0.0,0.0,69,0.00,OVC,BKN,0.00,63.0,WeatherDisplay:10.37,2013-08-27 21:51:00,
2013-08-27 17:56:00,78.2,68.0,29.92,SSE,149,0.0,0.0,71,0.00,OVC,BKN,0.00,42.0,WeatherDisplay:10.37,2013-08-27 21:56:00,
2013-08-27 18:01:00,77.7,67.1,29.92,SSE,149,0.0,0.0,70,0.00,OVC,BKN,0.00,44.0,WeatherDisplay:10.37,2013-08-27 22:01:00,
2013-08-27 18:06:00,77.4,66.8,29.92,SSE,149,0.0,0.0,70,0.00,OVC,BKN,0.00,51.0,WeatherDisplay:10.37,2013-08-27 22:06:00,
2013-08-27 18:11:00,77.1,67.0,29.92,SSE,149,0.0,0.0,71,0.00,OVC,BKN,0.00,54.0,WeatherDisplay:10.37,2013-08-27 22:11:00,
2013-08-27 18:16:00,76.9,67.2,29.92,South,187,0.0,0.0,72,0.00,BKN,BKN,0.00,77.0,WeatherDisplay:10.37,2013-08-27 22:16:00,
2013-08-27 18:21:00,76.8,67.5,29.92,South,187,0.0,0.0,73,0.00,SCT,BKN,0.00,90.0,WeatherDisplay:10.37,2013-08-27 22:21:00,
2013-08-27 18:26:00,76.8,67.1,29.92,South,187,0.0,0.0,72,0.00,SCT,BKN,0.00,84.0,WeatherDisplay:10.37,2013-08-27 22:26:00,
2013-08-27 18:31:00,76.8,67.1,29.93,South,187,0.0,0.0,72,0.00,SCT,BKN,0.00,84.0,WeatherDisplay:10.37,2013-08-27 22:31:00,
2013-08-27 18:36:00,76.9,66.8,29.92,South,187,0.0,0.0,71,0.00,BKN,BKN,0.00,63.0,WeatherDisplay:10.37,2013-08-27 22:36:00,
2013-08-27 18:41:00,76.9,67.2,29.92,WNW,289,1.1,0.0,72,0.00,BKN,BKN,0.00,42.0,WeatherDisplay:10.37,2013-08-27 22:41:00,
2013-08-27 18:46:00,76.9,66.8,29.92,WNW,289,0.0,0.0,71,0.00,OVC,BKN,0.00,33.0,WeatherDisplay:10.37,2013-08-27 22:46:00,
2013-08-27 18:51:00,76.9,67.6,29.92,WNW,289,0.0,0.0,73,0.00,OVC,BKN,0.00,26.0,WeatherDisplay:10.37,2013-08-27 22:51:00,
2013-08-27 18:56:00,76.7,67.4,29.92,WNW,289,0.0,0.0,73,0.00,BKN,BKN,0.00,40.0,WeatherDisplay:10.37,2013-08-27 22:56:00,
2013-08-27 19:01:00,76.5,67.6,29.92,WNW,289,0.0,0.0,74,0.00,FEW,BKN,0.00,56.0,WeatherDisplay:10.37,2013-08-27 23:01:00,
2013-08-27 19:06:00,76.3,67.4,29.92,West,277,0.0,0.0,74,0.00,CLR,BKN,0.00,58.0,WeatherDisplay:10.37,2013-08-27 23:06:00,
2013-08-27 19:11:00,76.2,67.7,29.92,SSW,204,1.1,0.0,75,0.00,CLR,BKN,0.00,49.0,WeatherDisplay:10.37,2013-08-27 23:11:00,
2013-08-27 19:16:00,76.0,67.5,29.92,SSW,210,0.0,0.0,75,0.00,CLR,BKN,0.00,39.0,WeatherDisplay:10.37,2013-08-27 23:16:00,
2013-08-27 19:21:00,75.9,67.0,29.92,SSW,210,0.0,0.0,74,0.00,FEW,BKN,0.00,28.0,WeatherDisplay:10.37,2013-08-27 23:21:00,
2013-08-27 19:26:00,75.8,66.9,29.92,SSW,210,0.0,0.0,74,0.00,CLR,BKN,0.00,25.0,WeatherDisplay:10.37,2013-08-27 23:26:00,
2013-08-27 19:31:00,75.6,66.7,29.92,SSW,210,0.0,0.0,74,0.00,CLR,BKN,0.00,18.0,WeatherDisplay:10.37,2013-08-27 23:31:00,
2013-08-27 19:36:00,75.5,66.6,29.92,SSW,210,0.0,0.0,74,0.00,CLR,BKN,0.00,11.0,WeatherDisplay:10.37,2013-08-27 23:36:00,
2013-08-27 19:41:00,75.5,66.6,29.92,SSW,210,0.0,0.0,74,0.00,OVC,BKN,0.00,0.0,WeatherDisplay:10.37,2013-08-27 23:41:00,
2013-08-27 19:46:00,75.6,66.7,29.92,SSW,210,0.0,0.0,74,0.00,OVC,BKN,0.00,0.0,WeatherDisplay:10.37,2013-08-27 23:46:00,
2013-08-27 22:41:00,72.0,66.6,29.95,SSW,204,0.0,0.0,83,0.00,CLR,BKN,0.00,0.0,WeatherDisplay:10.37,2013-08-28 02:41:00,
2013-08-27 22:46:00,71.8,66.4,29.95,South,188,0.0,0.0,83,0.00,,BKN,0.00,0.0,WeatherDisplay:10.37,2013-08-28 02:46:00,
2013-08-27 22:51:00,71.7,66.6,29.95,South,187,0.0,0.0,84,0.00,,BKN,0.00,0.0,WeatherDisplay:10.37,2013-08-28 02:51:00,
2013-08-27 22:56:00,71.5,66.8,29.96,SSW,196,0.0,0.0,85,0.00,,BKN,0.00,0.0,WeatherDisplay:10.37,2013-08-28 02:56:00,
2013-08-27 23:01:00,71.3,66.2,29.95,SSW,206,0.0,0.0,84,0.00,,BKN,0.00,0.0,WeatherDisplay:10.37,2013-08-28 03:01:00,
2013-08-27 23:06:00,71.2,66.5,29.95,SSW,206,0.0,0.0,85,0.00,,BKN,0.00,0.0,WeatherDisplay:10.37,2013-08-28 03:06:00,
2013-08-27 23:11:00,71.2,66.5,29.95,SSW,204,0.0,0.0,85,0.00,,BKN,0.00,0.0,WeatherDisplay:10.37,2013-08-28 03:11:00,
2013-08-27 23:16:00,71.2,66.1,29.96,SSW,204,0.0,0.0,84,0.00,,BKN,0.00,0.0,WeatherDisplay:10.37,2013-08-28 03:16:00,
2013-08-27 23:21:00,71.3,66.2,29.95,WSW,243,0.0,0.0,84,0.00,,BKN,0.00,0.0,WeatherDisplay:10.37,2013-08-28 03:21:00,
2013-08-27 23:26:00,71.3,66.2,29.95,WSW,243,0.0,0.0,84,0.00,,BKN,0.00,0.0,WeatherDisplay:10.37,2013-08-28 03:26:00,
2013-08-27 23:31:00,71.2,66.1,29.95,SSW,195,0.0,0.0,84,0.00,,BKN,0.00,0.0,WeatherDisplay:10.37,2013-08-28 03:31:00,
2013-08-27 23:36:00,71.4,65.6,29.95,SSW,206,0.0,0.0,82,0.00,,BKN,0.00,0.0,WeatherDisplay:10.37,2013-08-28 03:36:00,
2013-08-27 23:41:00,71.6,66.2,29.95,WSW,254,0.0,0.0,83,0.00,,BKN,0.00,0.0,WeatherDisplay:10.37,2013-08-28 03:41:00,
2013-08-27 23:46:00,71.6,66.2,29.95,WSW,254,0.0,0.0,83,0.00,,BKN,0.00,0.0,WeatherDisplay:10.37,2013-08-28 03:46:00,
2013-08-27 23:51:00,71.6,65.8,29.95,West,275,0.0,0.0,82,0.00,,BKN,0.00,0.0,WeatherDisplay:10.37,2013-08-28 03:51:00,
2013-08-27 23:56:00,71.9,65.8,29.95,West,280,0.0,0.0,81,0.00,,BKN,0.00,0.0,WeatherDisplay:10.37,2013-08-28 03:56:00,